sensor_id;sensor_type;location;lat;lon;timestamp;P1;durP1;ratioP1;P2;durP2;ratioP2
8331;SDS011;4203;48.144;14.118;2022-07-23T00:01:44;14.30;;;13.05;;
8331;SDS011;4203;48.144;14.118;2022-07-23T00:04:12;14.63;;;13.25;;
8331;SDS011;4203;48.144;14.118;2022-07-23T00:06:40;15.35;;;13.95;;
8331;SDS011;4203;48.144;14.118;2022-07-23T00:09:07;14.35;;;13.15;;
8331;SDS011;4203;48.144;14.118;2022-07-23T00:11:35;14.13;;;12.90;;
8331;SDS011;4203;48.144;14.118;2022-07-23T00:14:02;14.45;;;13.23;;
8331;SDS011;4203;48.144;14.118;2022-07-23T00:16:30;13.90;;;12.60;;
8331;SDS011;4203;48.144;14.118;2022-07-23T00:18:57;13.02;;;11.93;;
8331;SDS011;4203;48.144;14.118;2022-07-23T00:21:26;15.27;;;12.40;;
8331;SDS011;4203;48.144;14.118;2022-07-23T00:23:53;13.63;;;12.23;;
8331;SDS011;4203;48.144;14.118;2022-07-23T00:26:20;13.68;;;12.38;;
8331;SDS011;4203;48.144;14.118;2022-07-23T00:28:49;13.52;;;12.20;;
8331;SDS011;4203;48.144;14.118;2022-07-23T00:31:16;12.05;;;10.85;;
8331;SDS011;4203;48.144;14.118;2022-07-23T00:33:43;10.63;;;9.73;;
8331;SDS011;4203;48.144;14.118;2022-07-23T00:36:11;9.63;;;8.85;;
8331;SDS011;4203;48.144;14.118;2022-07-23T00:38:38;10.38;;;9.00;;
8331;SDS011;4203;48.144;14.118;2022-07-23T00:41:05;9.60;;;8.57;;
8331;SDS011;4203;48.144;14.118;2022-07-23T00:43:32;10.55;;;8.85;;
8331;SDS011;4203;48.144;14.118;2022-07-23T00:46:01;10.40;;;9.35;;
8331;SDS011;4203;48.144;14.118;2022-07-23T00:48:28;11.95;;;10.90;;
8331;SDS011;4203;48.144;14.118;2022-07-23T00:50:55;13.60;;;12.20;;
8331;SDS011;4203;48.144;14.118;2022-07-23T00:53:22;14.85;;;13.35;;
8331;SDS011;4203;48.144;14.118;2022-07-23T00:55:49;14.63;;;13.05;;
8331;SDS011;4203;48.144;14.118;2022-07-23T00:58:17;13.85;;;12.65;;
8331;SDS011;4203;48.144;14.118;2022-07-23T01:00:45;13.88;;;12.57;;
8331;SDS011;4203;48.144;14.118;2022-07-23T01:03:14;14.25;;;13.05;;
8331;SDS011;4203;48.144;14.118;2022-07-23T01:05:41;14.45;;;13.18;;
8331;SDS011;4203;48.144;14.118;2022-07-23T01:08:08;14.75;;;13.38;;
8331;SDS011;4203;48.144;14.118;2022-07-23T01:10:35;13.85;;;12.52;;
8331;SDS011;4203;48.144;14.118;2022-07-23T01:13:03;13.48;;;12.27;;
8331;SDS011;4203;48.144;14.118;2022-07-23T01:15:32;14.27;;;12.98;;
8331;SDS011;4203;48.144;14.118;2022-07-23T01:18:00;12.80;;;11.77;;
8331;SDS011;4203;48.144;14.118;2022-07-23T01:20:29;13.63;;;12.32;;
8331;SDS011;4203;48.144;14.118;2022-07-23T01:22:58;13.50;;;12.40;;
8331;SDS011;4203;48.144;14.118;2022-07-23T01:25:26;12.57;;;11.38;;
8331;SDS011;4203;48.144;14.118;2022-07-23T01:27:53;11.18;;;10.18;;
8331;SDS011;4203;48.144;14.118;2022-07-23T01:30:20;11.30;;;10.35;;
8331;SDS011;4203;48.144;14.118;2022-07-23T01:32:47;11.50;;;10.52;;
8331;SDS011;4203;48.144;14.118;2022-07-23T01:35:14;10.65;;;9.75;;
8331;SDS011;4203;48.144;14.118;2022-07-23T01:37:42;8.82;;;8.10;;
8331;SDS011;4203;48.144;14.118;2022-07-23T01:40:10;9.27;;;8.48;;
8331;SDS011;4203;48.144;14.118;2022-07-23T01:42:38;10.18;;;9.35;;
8331;SDS011;4203;48.144;14.118;2022-07-23T01:45:05;10.63;;;9.73;;
8331;SDS011;4203;48.144;14.118;2022-07-23T01:47:33;10.13;;;9.13;;
8331;SDS011;4203;48.144;14.118;2022-07-23T01:50:00;9.95;;;9.10;;
8331;SDS011;4203;48.144;14.118;2022-07-23T01:52:27;9.02;;;8.32;;
8331;SDS011;4203;48.144;14.118;2022-07-23T01:54:55;9.75;;;8.88;;
8331;SDS011;4203;48.144;14.118;2022-07-23T01:57:23;9.75;;;8.85;;
8331;SDS011;4203;48.144;14.118;2022-07-23T01:59:50;8.98;;;8.27;;
8331;SDS011;4203;48.144;14.118;2022-07-23T02:02:17;8.30;;;7.60;;
8331;SDS011;4203;48.144;14.118;2022-07-23T02:04:45;14.10;;;8.40;;
8331;SDS011;4203;48.144;14.118;2022-07-23T02:07:12;8.57;;;7.80;;
8331;SDS011;4203;48.144;14.118;2022-07-23T02:09:39;8.68;;;7.85;;
8331;SDS011;4203;48.144;14.118;2022-07-23T02:12:06;8.55;;;7.85;;
8331;SDS011;4203;48.144;14.118;2022-07-23T02:14:35;8.68;;;7.88;;
8331;SDS011;4203;48.144;14.118;2022-07-23T02:17:02;9.10;;;8.40;;
8331;SDS011;4203;48.144;14.118;2022-07-23T02:19:29;9.02;;;7.70;;
8331;SDS011;4203;48.144;14.118;2022-07-23T02:21:56;8.20;;;7.50;;
8331;SDS011;4203;48.144;14.118;2022-07-23T02:24:23;9.10;;;8.30;;
8331;SDS011;4203;48.144;14.118;2022-07-23T02:26:51;9.32;;;8.63;;
8331;SDS011;4203;48.144;14.118;2022-07-23T02:29:18;8.35;;;7.68;;
8331;SDS011;4203;48.144;14.118;2022-07-23T02:31:46;8.52;;;7.82;;
8331;SDS011;4203;48.144;14.118;2022-07-23T02:34:14;8.20;;;7.60;;
8331;SDS011;4203;48.144;14.118;2022-07-23T02:36:41;8.43;;;7.63;;
8331;SDS011;4203;48.144;14.118;2022-07-23T02:39:08;7.95;;;7.45;;
8331;SDS011;4203;48.144;14.118;2022-07-23T02:41:35;9.02;;;8.23;;
8331;SDS011;4203;48.144;14.118;2022-07-23T02:44:02;9.68;;;8.73;;
8331;SDS011;4203;48.144;14.118;2022-07-23T02:46:30;8.32;;;7.68;;
8331;SDS011;4203;48.144;14.118;2022-07-23T02:48:58;8.82;;;8.13;;
8331;SDS011;4203;48.144;14.118;2022-07-23T02:51:27;8.63;;;7.93;;
8331;SDS011;4203;48.144;14.118;2022-07-23T02:53:54;8.57;;;7.88;;
8331;SDS011;4203;48.144;14.118;2022-07-23T02:56:21;7.35;;;6.75;;
8331;SDS011;4203;48.144;14.118;2022-07-23T02:58:48;8.60;;;7.72;;
8331;SDS011;4203;48.144;14.118;2022-07-23T03:01:15;9.43;;;8.52;;
8331;SDS011;4203;48.144;14.118;2022-07-23T03:03:42;8.02;;;7.32;;
8331;SDS011;4203;48.144;14.118;2022-07-23T03:06:11;7.68;;;7.00;;
8331;SDS011;4203;48.144;14.118;2022-07-23T03:08:38;7.55;;;7.00;;
8331;SDS011;4203;48.144;14.118;2022-07-23T03:11:06;7.75;;;7.05;;
8331;SDS011;4203;48.144;14.118;2022-07-23T03:13:36;7.18;;;6.57;;
8331;SDS011;4203;48.144;14.118;2022-07-23T03:16:03;7.30;;;6.70;;
8331;SDS011;4203;48.144;14.118;2022-07-23T03:18:31;7.32;;;6.63;;
8331;SDS011;4203;48.144;14.118;2022-07-23T03:20:59;7.53;;;6.82;;
8331;SDS011;4203;48.144;14.118;2022-07-23T03:23:27;6.80;;;6.00;;
8331;SDS011;4203;48.144;14.118;2022-07-23T03:25:55;6.85;;;6.28;;
8331;SDS011;4203;48.144;14.118;2022-07-23T03:28:22;7.85;;;7.10;;
8331;SDS011;4203;48.144;14.118;2022-07-23T03:30:49;7.00;;;6.50;;
8331;SDS011;4203;48.144;14.118;2022-07-23T03:33:16;7.32;;;6.65;;
8331;SDS011;4203;48.144;14.118;2022-07-23T03:35:45;7.82;;;7.03;;
8331;SDS011;4203;48.144;14.118;2022-07-23T03:38:12;7.05;;;6.45;;
8331;SDS011;4203;48.144;14.118;2022-07-23T03:40:41;7.20;;;6.57;;
8331;SDS011;4203;48.144;14.118;2022-07-23T03:43:08;8.52;;;6.38;;
8331;SDS011;4203;48.144;14.118;2022-07-23T03:45:36;7.50;;;6.65;;
8331;SDS011;4203;48.144;14.118;2022-07-23T03:48:03;6.72;;;6.25;;
8331;SDS011;4203;48.144;14.118;2022-07-23T03:50:30;6.13;;;5.68;;
8331;SDS011;4203;48.144;14.118;2022-07-23T03:52:57;6.63;;;6.03;;
8331;SDS011;4203;48.144;14.118;2022-07-23T03:55:25;6.25;;;5.07;;
8331;SDS011;4203;48.144;14.118;2022-07-23T03:57:53;5.72;;;5.32;;
8331;SDS011;4203;48.144;14.118;2022-07-23T04:00:20;5.72;;;5.32;;
8331;SDS011;4203;48.144;14.118;2022-07-23T04:02:47;5.80;;;5.20;;
8331;SDS011;4203;48.144;14.118;2022-07-23T04:05:15;5.47;;;5.10;;
8331;SDS011;4203;48.144;14.118;2022-07-23T04:07:42;5.10;;;4.70;;
8331;SDS011;4203;48.144;14.118;2022-07-23T04:10:10;5.45;;;5.05;;
8331;SDS011;4203;48.144;14.118;2022-07-23T04:12:37;5.47;;;4.97;;
8331;SDS011;4203;48.144;14.118;2022-07-23T04:15:06;5.72;;;4.80;;
8331;SDS011;4203;48.144;14.118;2022-07-23T04:17:34;5.10;;;4.57;;
8331;SDS011;4203;48.144;14.118;2022-07-23T04:20:01;5.00;;;4.60;;
8331;SDS011;4203;48.144;14.118;2022-07-23T04:22:29;5.28;;;4.93;;
8331;SDS011;4203;48.144;14.118;2022-07-23T04:24:56;5.60;;;5.13;;
8331;SDS011;4203;48.144;14.118;2022-07-23T04:27:23;5.35;;;4.95;;
8331;SDS011;4203;48.144;14.118;2022-07-23T04:29:50;4.97;;;4.57;;
8331;SDS011;4203;48.144;14.118;2022-07-23T04:32:19;4.80;;;4.40;;
8331;SDS011;4203;48.144;14.118;2022-07-23T04:34:46;5.82;;;4.47;;
8331;SDS011;4203;48.144;14.118;2022-07-23T04:37:13;4.20;;;3.95;;
8331;SDS011;4203;48.144;14.118;2022-07-23T04:39:40;5.28;;;4.50;;
8331;SDS011;4203;48.144;14.118;2022-07-23T04:42:08;4.50;;;4.03;;
8331;SDS011;4203;48.144;14.118;2022-07-23T04:44:35;4.75;;;4.15;;
8331;SDS011;4203;48.144;14.118;2022-07-23T04:47:02;4.10;;;3.80;;
8331;SDS011;4203;48.144;14.118;2022-07-23T04:49:30;5.00;;;3.30;;
8331;SDS011;4203;48.144;14.118;2022-07-23T04:51:57;4.10;;;3.80;;
8331;SDS011;4203;48.144;14.118;2022-07-23T04:54:25;5.55;;;3.70;;
8331;SDS011;4203;48.144;14.118;2022-07-23T04:56:52;5.00;;;3.72;;
8331;SDS011;4203;48.144;14.118;2022-07-23T04:59:19;7.55;;;3.97;;
8331;SDS011;4203;48.144;14.118;2022-07-23T05:01:46;4.60;;;3.92;;
8331;SDS011;4203;48.144;14.118;2022-07-23T05:04:13;4.43;;;3.78;;
8331;SDS011;4203;48.144;14.118;2022-07-23T05:06:42;7.55;;;4.30;;
8331;SDS011;4203;48.144;14.118;2022-07-23T05:09:09;4.22;;;3.83;;
8331;SDS011;4203;48.144;14.118;2022-07-23T05:11:36;4.85;;;4.38;;
8331;SDS011;4203;48.144;14.118;2022-07-23T05:14:03;4.07;;;3.78;;
8331;SDS011;4203;48.144;14.118;2022-07-23T05:16:30;4.22;;;3.83;;
8331;SDS011;4203;48.144;14.118;2022-07-23T05:18:57;4.63;;;4.18;;
8331;SDS011;4203;48.144;14.118;2022-07-23T05:21:24;4.03;;;3.72;;
8331;SDS011;4203;48.144;14.118;2022-07-23T05:23:53;4.15;;;3.85;;
8331;SDS011;4203;48.144;14.118;2022-07-23T05:26:20;4.50;;;4.10;;
8331;SDS011;4203;48.144;14.118;2022-07-23T05:28:47;4.60;;;4.25;;
8331;SDS011;4203;48.144;14.118;2022-07-23T05:31:15;3.90;;;3.65;;
8331;SDS011;4203;48.144;14.118;2022-07-23T05:33:42;4.47;;;4.18;;
8331;SDS011;4203;48.144;14.118;2022-07-23T05:36:09;4.47;;;4.10;;
8331;SDS011;4203;48.144;14.118;2022-07-23T05:38:36;4.35;;;3.95;;
8331;SDS011;4203;48.144;14.118;2022-07-23T05:41:05;4.93;;;4.43;;
8331;SDS011;4203;48.144;14.118;2022-07-23T05:43:32;4.32;;;3.92;;
8331;SDS011;4203;48.144;14.118;2022-07-23T05:45:59;4.57;;;4.28;;
8331;SDS011;4203;48.144;14.118;2022-07-23T05:48:27;5.93;;;4.35;;
8331;SDS011;4203;48.144;14.118;2022-07-23T05:50:54;4.43;;;3.97;;
8331;SDS011;4203;48.144;14.118;2022-07-23T05:53:21;4.60;;;4.10;;
8331;SDS011;4203;48.144;14.118;2022-07-23T05:55:49;6.18;;;4.22;;
8331;SDS011;4203;48.144;14.118;2022-07-23T05:58:18;4.60;;;4.30;;
8331;SDS011;4203;48.144;14.118;2022-07-23T06:00:45;6.15;;;4.30;;
8331;SDS011;4203;48.144;14.118;2022-07-23T06:03:12;4.55;;;4.25;;
8331;SDS011;4203;48.144;14.118;2022-07-23T06:05:39;5.35;;;4.13;;
8331;SDS011;4203;48.144;14.118;2022-07-23T06:08:07;4.22;;;3.92;;
8331;SDS011;4203;48.144;14.118;2022-07-23T06:10:34;4.80;;;4.40;;
8331;SDS011;4203;48.144;14.118;2022-07-23T06:13:01;4.18;;;3.88;;
8331;SDS011;4203;48.144;14.118;2022-07-23T06:15:30;5.53;;;4.15;;
8331;SDS011;4203;48.144;14.118;2022-07-23T06:17:57;4.93;;;4.57;;
8331;SDS011;4203;48.144;14.118;2022-07-23T06:20:24;4.50;;;4.20;;
8331;SDS011;4203;48.144;14.118;2022-07-23T06:22:51;4.63;;;4.22;;
8331;SDS011;4203;48.144;14.118;2022-07-23T06:25:18;4.05;;;3.75;;
8331;SDS011;4203;48.144;14.118;2022-07-23T06:27:46;4.30;;;3.80;;
8331;SDS011;4203;48.144;14.118;2022-07-23T06:30:14;4.53;;;4.22;;
8331;SDS011;4203;48.144;14.118;2022-07-23T06:32:43;5.20;;;4.28;;
8331;SDS011;4203;48.144;14.118;2022-07-23T06:35:11;6.70;;;4.10;;
8331;SDS011;4203;48.144;14.118;2022-07-23T06:37:38;4.80;;;4.00;;
8331;SDS011;4203;48.144;14.118;2022-07-23T06:40:05;4.18;;;3.85;;
8331;SDS011;4203;48.144;14.118;2022-07-23T06:42:33;4.03;;;3.72;;
8331;SDS011;4203;48.144;14.118;2022-07-23T06:45:02;4.65;;;3.83;;
8331;SDS011;4203;48.144;14.118;2022-07-23T06:47:29;4.07;;;3.88;;
8331;SDS011;4203;48.144;14.118;2022-07-23T06:49:58;4.13;;;3.67;;
8331;SDS011;4203;48.144;14.118;2022-07-23T06:52:25;4.80;;;3.53;;
8331;SDS011;4203;48.144;14.118;2022-07-23T06:54:53;6.72;;;4.15;;
8331;SDS011;4203;48.144;14.118;2022-07-23T06:57:20;4.03;;;3.72;;
8331;SDS011;4203;48.144;14.118;2022-07-23T06:59:47;4.20;;;3.80;;
8331;SDS011;4203;48.144;14.118;2022-07-23T07:02:14;3.88;;;3.60;;
8331;SDS011;4203;48.144;14.118;2022-07-23T07:04:41;3.53;;;3.20;;
8331;SDS011;4203;48.144;14.118;2022-07-23T07:07:10;4.22;;;3.63;;
8331;SDS011;4203;48.144;14.118;2022-07-23T07:09:38;4.70;;;3.83;;
8331;SDS011;4203;48.144;14.118;2022-07-23T07:12:05;4.18;;;3.22;;
8331;SDS011;4203;48.144;14.118;2022-07-23T07:14:33;8.18;;;3.60;;
8331;SDS011;4203;48.144;14.118;2022-07-23T07:17:00;3.67;;;3.13;;
8331;SDS011;4203;48.144;14.118;2022-07-23T07:19:27;4.03;;;3.63;;
8331;SDS011;4203;48.144;14.118;2022-07-23T07:21:54;3.38;;;3.17;;
8331;SDS011;4203;48.144;14.118;2022-07-23T07:24:23;3.28;;;3.05;;
8331;SDS011;4203;48.144;14.118;2022-07-23T07:26:50;5.47;;;3.35;;
8331;SDS011;4203;48.144;14.118;2022-07-23T07:29:17;3.42;;;3.13;;
8331;SDS011;4203;48.144;14.118;2022-07-23T07:31:44;3.38;;;3.15;;
8331;SDS011;4203;48.144;14.118;2022-07-23T07:34:11;3.40;;;3.10;;
8331;SDS011;4203;48.144;14.118;2022-07-23T07:36:38;3.45;;;3.05;;
8331;SDS011;4203;48.144;14.118;2022-07-23T07:39:05;4.00;;;3.20;;
8331;SDS011;4203;48.144;14.118;2022-07-23T07:41:37;3.42;;;3.22;;
8331;SDS011;4203;48.144;14.118;2022-07-23T07:44:04;4.47;;;3.13;;
8331;SDS011;4203;48.144;14.118;2022-07-23T07:46:31;3.30;;;3.03;;
8331;SDS011;4203;48.144;14.118;2022-07-23T07:48:58;3.15;;;2.95;;
8331;SDS011;4203;48.144;14.118;2022-07-23T07:51:25;2.97;;;2.78;;
8331;SDS011;4203;48.144;14.118;2022-07-23T07:53:54;3.35;;;3.10;;
8331;SDS011;4203;48.144;14.118;2022-07-23T07:56:21;5.70;;;3.00;;
8331;SDS011;4203;48.144;14.118;2022-07-23T07:58:49;3.10;;;2.85;;
8331;SDS011;4203;48.144;14.118;2022-07-23T08:01:16;2.72;;;2.63;;
8331;SDS011;4203;48.144;14.118;2022-07-23T08:03:44;3.70;;;2.75;;
8331;SDS011;4203;48.144;14.118;2022-07-23T08:06:11;3.25;;;3.10;;
8331;SDS011;4203;48.144;14.118;2022-07-23T08:08:38;2.80;;;2.70;;
8331;SDS011;4203;48.144;14.118;2022-07-23T08:11:06;3.35;;;3.08;;
8331;SDS011;4203;48.144;14.118;2022-07-23T08:13:33;2.75;;;2.65;;
8331;SDS011;4203;48.144;14.118;2022-07-23T08:16:01;3.08;;;2.80;;
8331;SDS011;4203;48.144;14.118;2022-07-23T08:18:29;3.17;;;2.97;;
8331;SDS011;4203;48.144;14.118;2022-07-23T08:20:56;2.92;;;2.80;;
8331;SDS011;4203;48.144;14.118;2022-07-23T08:23:23;2.78;;;2.58;;
8331;SDS011;4203;48.144;14.118;2022-07-23T08:25:50;3.10;;;2.88;;
8331;SDS011;4203;48.144;14.118;2022-07-23T08:28:18;4.82;;;3.40;;
8331;SDS011;4203;48.144;14.118;2022-07-23T08:30:46;4.72;;;3.17;;
8331;SDS011;4203;48.144;14.118;2022-07-23T08:33:15;3.03;;;2.88;;
8331;SDS011;4203;48.144;14.118;2022-07-23T08:35:43;3.03;;;2.90;;
8331;SDS011;4203;48.144;14.118;2022-07-23T08:38:13;3.20;;;3.00;;
8331;SDS011;4203;48.144;14.118;2022-07-23T08:40:42;3.20;;;2.97;;
8331;SDS011;4203;48.144;14.118;2022-07-23T08:43:12;3.88;;;2.75;;
8331;SDS011;4203;48.144;14.118;2022-07-23T08:45:41;2.60;;;2.40;;
8331;SDS011;4203;48.144;14.118;2022-07-23T08:48:11;5.28;;;3.10;;
8331;SDS011;4203;48.144;14.118;2022-07-23T08:50:43;3.38;;;2.90;;
8331;SDS011;4203;48.144;14.118;2022-07-23T08:53:11;4.38;;;2.80;;
8331;SDS011;4203;48.144;14.118;2022-07-23T08:55:39;2.92;;;2.72;;
8331;SDS011;4203;48.144;14.118;2022-07-23T08:58:06;2.83;;;2.63;;
8331;SDS011;4203;48.144;14.118;2022-07-23T09:00:33;2.30;;;2.20;;
8331;SDS011;4203;48.144;14.118;2022-07-23T09:03:00;2.85;;;2.75;;
8331;SDS011;4203;48.144;14.118;2022-07-23T09:05:28;2.70;;;2.60;;
8331;SDS011;4203;48.144;14.118;2022-07-23T09:08:07;3.17;;;3.03;;
8331;SDS011;4203;48.144;14.118;2022-07-23T09:10:43;3.25;;;2.95;;
8331;SDS011;4203;48.144;14.118;2022-07-23T09:13:25;3.08;;;2.95;;
8331;SDS011;4203;48.144;14.118;2022-07-23T09:15:57;2.88;;;2.72;;
8331;SDS011;4203;48.144;14.118;2022-07-23T09:18:29;4.88;;;3.35;;
8331;SDS011;4203;48.144;14.118;2022-07-23T09:21:07;3.10;;;2.90;;
8331;SDS011;4203;48.144;14.118;2022-07-23T09:23:40;3.28;;;2.97;;
8331;SDS011;4203;48.144;14.118;2022-07-23T09:26:22;2.85;;;2.63;;
8331;SDS011;4203;48.144;14.118;2022-07-23T09:29:01;3.70;;;3.30;;
8331;SDS011;4203;48.144;14.118;2022-07-23T09:31:31;4.20;;;3.90;;
8331;SDS011;4203;48.144;14.118;2022-07-23T09:34:10;5.57;;;3.85;;
8331;SDS011;4203;48.144;14.118;2022-07-23T09:36:39;4.40;;;4.10;;
8331;SDS011;4203;48.144;14.118;2022-07-23T09:39:08;4.13;;;3.83;;
8331;SDS011;4203;48.144;14.118;2022-07-23T09:41:38;3.83;;;3.63;;
8331;SDS011;4203;48.144;14.118;2022-07-23T09:44:07;4.25;;;3.92;;
8331;SDS011;4203;48.144;14.118;2022-07-23T09:46:36;4.28;;;3.95;;
8331;SDS011;4203;48.144;14.118;2022-07-23T09:49:13;4.95;;;4.45;;
8331;SDS011;4203;48.144;14.118;2022-07-23T09:51:45;10.27;;;4.57;;
8331;SDS011;4203;48.144;14.118;2022-07-23T09:54:22;4.28;;;3.90;;
8331;SDS011;4203;48.144;14.118;2022-07-23T09:56:59;4.20;;;3.90;;
8331;SDS011;4203;48.144;14.118;2022-07-23T09:59:28;4.70;;;4.40;;
8331;SDS011;4203;48.144;14.118;2022-07-23T10:01:58;4.45;;;3.75;;
8331;SDS011;4203;48.144;14.118;2022-07-23T10:04:27;4.10;;;3.90;;
8331;SDS011;4203;48.144;14.118;2022-07-23T10:06:56;3.80;;;3.60;;
8331;SDS011;4203;48.144;14.118;2022-07-23T10:09:27;4.60;;;4.15;;
8331;SDS011;4203;48.144;14.118;2022-07-23T10:11:59;4.57;;;4.28;;
8331;SDS011;4203;48.144;14.118;2022-07-23T10:14:46;4.15;;;3.78;;
8331;SDS011;4203;48.144;14.118;2022-07-23T10:17:14;4.10;;;3.80;;
8331;SDS011;4203;48.144;14.118;2022-07-23T10:19:41;4.05;;;3.70;;
8331;SDS011;4203;48.144;14.118;2022-07-23T10:22:10;4.50;;;3.92;;
8331;SDS011;4203;48.144;14.118;2022-07-23T10:24:45;3.63;;;3.42;;
8331;SDS011;4203;48.144;14.118;2022-07-23T10:27:34;4.38;;;3.55;;
8331;SDS011;4203;48.144;14.118;2022-07-23T10:30:22;4.38;;;3.97;;
8331;SDS011;4203;48.144;14.118;2022-07-23T10:33:00;4.20;;;3.72;;
8331;SDS011;4203;48.144;14.118;2022-07-23T10:35:47;4.45;;;4.05;;
8331;SDS011;4203;48.144;14.118;2022-07-23T10:38:20;3.67;;;3.38;;
8331;SDS011;4203;48.144;14.118;2022-07-23T10:40:55;3.80;;;3.53;;
8331;SDS011;4203;48.144;14.118;2022-07-23T10:43:23;3.80;;;3.60;;
8331;SDS011;4203;48.144;14.118;2022-07-23T10:45:50;4.05;;;3.75;;
8331;SDS011;4203;48.144;14.118;2022-07-23T10:48:19;4.03;;;3.70;;
8331;SDS011;4203;48.144;14.118;2022-07-23T10:51:06;4.35;;;4.07;;
8331;SDS011;4203;48.144;14.118;2022-07-23T10:53:54;4.43;;;4.05;;
8331;SDS011;4203;48.144;14.118;2022-07-23T10:59:32;6.63;;;4.03;;
8331;SDS011;4203;48.144;14.118;2022-07-23T11:02:38;5.50;;;3.78;;
8331;SDS011;4203;48.144;14.118;2022-07-23T11:05:07;4.47;;;4.13;;
8331;SDS011;4203;48.144;14.118;2022-07-23T11:07:36;4.25;;;3.95;;
8331;SDS011;4203;48.144;14.118;2022-07-23T11:10:34;4.00;;;3.80;;
8331;SDS011;4203;48.144;14.118;2022-07-23T11:16:11;5.40;;;3.50;;
8331;SDS011;4203;48.144;14.118;2022-07-23T11:21:44;3.80;;;3.50;;
8331;SDS011;4203;48.144;14.118;2022-07-23T11:24:22;3.63;;;3.42;;
8331;SDS011;4203;48.144;14.118;2022-07-23T11:26:52;3.88;;;3.67;;
8331;SDS011;4203;48.144;14.118;2022-07-23T11:35:05;3.80;;;3.50;;
8331;SDS011;4203;48.144;14.118;2022-07-23T11:37:48;3.80;;;3.50;;
8331;SDS011;4203;48.144;14.118;2022-07-23T11:40:19;3.83;;;3.55;;
8331;SDS011;4203;48.144;14.118;2022-07-23T11:42:51;3.97;;;3.60;;
8331;SDS011;4203;48.144;14.118;2022-07-23T11:45:24;4.28;;;3.75;;
8331;SDS011;4203;48.144;14.118;2022-07-23T11:47:57;4.03;;;3.40;;
8331;SDS011;4203;48.144;14.118;2022-07-23T11:50:24;3.65;;;3.45;;
8331;SDS011;4203;48.144;14.118;2022-07-23T11:52:52;4.00;;;3.70;;
8331;SDS011;4203;48.144;14.118;2022-07-23T11:55:19;3.70;;;3.50;;
8331;SDS011;4203;48.144;14.118;2022-07-23T11:57:47;3.42;;;3.13;;
8331;SDS011;4203;48.144;14.118;2022-07-23T12:00:18;3.05;;;2.90;;
8331;SDS011;4203;48.144;14.118;2022-07-23T12:02:49;3.78;;;3.47;;
8331;SDS011;4203;48.144;14.118;2022-07-23T12:05:18;4.32;;;3.38;;
8331;SDS011;4203;48.144;14.118;2022-07-23T12:07:46;3.60;;;3.20;;
8331;SDS011;4203;48.144;14.118;2022-07-23T12:10:16;3.58;;;3.38;;
8331;SDS011;4203;48.144;14.118;2022-07-23T12:12:46;3.53;;;3.25;;
8331;SDS011;4203;48.144;14.118;2022-07-23T12:15:16;3.88;;;3.40;;
8331;SDS011;4203;48.144;14.118;2022-07-23T12:17:48;3.38;;;3.28;;
8331;SDS011;4203;48.144;14.118;2022-07-23T12:20:18;3.60;;;3.33;;
8331;SDS011;4203;48.144;14.118;2022-07-23T12:22:47;3.38;;;3.17;;
8331;SDS011;4203;48.144;14.118;2022-07-23T12:25:16;3.90;;;3.70;;
8331;SDS011;4203;48.144;14.118;2022-07-23T12:27:45;3.67;;;3.38;;
8331;SDS011;4203;48.144;14.118;2022-07-23T12:30:24;4.10;;;3.90;;
8331;SDS011;4203;48.144;14.118;2022-07-23T12:32:54;4.13;;;3.92;;
8331;SDS011;4203;48.144;14.118;2022-07-23T12:35:23;3.70;;;3.45;;
8331;SDS011;4203;48.144;14.118;2022-07-23T12:37:59;3.60;;;3.50;;
8331;SDS011;4203;48.144;14.118;2022-07-23T12:40:28;3.83;;;3.53;;
8331;SDS011;4203;48.144;14.118;2022-07-23T12:42:57;3.78;;;3.58;;
8331;SDS011;4203;48.144;14.118;2022-07-23T12:45:26;4.20;;;3.90;;
8331;SDS011;4203;48.144;14.118;2022-07-23T12:47:57;4.20;;;3.80;;
8331;SDS011;4203;48.144;14.118;2022-07-23T12:50:41;3.83;;;3.53;;
8331;SDS011;4203;48.144;14.118;2022-07-23T12:53:10;3.65;;;3.30;;
8331;SDS011;4203;48.144;14.118;2022-07-23T12:55:40;3.40;;;3.20;;
8331;SDS011;4203;48.144;14.118;2022-07-23T12:58:10;3.20;;;3.00;;
8331;SDS011;4203;48.144;14.118;2022-07-23T13:00:54;3.70;;;3.40;;
8331;SDS011;4203;48.144;14.118;2022-07-23T13:03:29;3.05;;;2.85;;
8331;SDS011;4203;48.144;14.118;2022-07-23T13:05:59;3.42;;;3.22;;
8331;SDS011;4203;48.144;14.118;2022-07-23T13:08:27;3.42;;;3.30;;
8331;SDS011;4203;48.144;14.118;2022-07-23T13:10:56;3.55;;;3.35;;
8331;SDS011;4203;48.144;14.118;2022-07-23T13:13:25;3.30;;;3.00;;
8331;SDS011;4203;48.144;14.118;2022-07-23T13:15:53;3.22;;;3.13;;
8331;SDS011;4203;48.144;14.118;2022-07-23T13:18:21;3.20;;;3.10;;
8331;SDS011;4203;48.144;14.118;2022-07-23T13:20:49;3.30;;;3.00;;
8331;SDS011;4203;48.144;14.118;2022-07-23T13:23:17;3.60;;;3.40;;
8331;SDS011;4203;48.144;14.118;2022-07-23T13:25:44;3.42;;;3.20;;
8331;SDS011;4203;48.144;14.118;2022-07-23T13:28:12;3.47;;;3.28;;
8331;SDS011;4203;48.144;14.118;2022-07-23T13:30:41;4.10;;;3.80;;
8331;SDS011;4203;48.144;14.118;2022-07-23T13:33:09;3.40;;;3.20;;
8331;SDS011;4203;48.144;14.118;2022-07-23T13:35:36;4.00;;;3.80;;
8331;SDS011;4203;48.144;14.118;2022-07-23T13:38:05;3.70;;;3.50;;
8331;SDS011;4203;48.144;14.118;2022-07-23T13:40:37;3.92;;;3.72;;
8331;SDS011;4203;48.144;14.118;2022-07-23T13:43:07;3.58;;;3.38;;
8331;SDS011;4203;48.144;14.118;2022-07-23T13:45:35;4.10;;;3.90;;
8331;SDS011;4203;48.144;14.118;2022-07-23T13:48:03;4.50;;;4.10;;
8331;SDS011;4203;48.144;14.118;2022-07-23T13:50:31;4.70;;;4.35;;
8331;SDS011;4203;48.144;14.118;2022-07-23T13:53:00;4.70;;;4.40;;
8331;SDS011;4203;48.144;14.118;2022-07-23T13:55:30;5.38;;;4.85;;
8331;SDS011;4203;48.144;14.118;2022-07-23T13:57:58;6.90;;;5.00;;
8331;SDS011;4203;48.144;14.118;2022-07-23T14:00:26;4.60;;;4.30;;
8331;SDS011;4203;48.144;14.118;2022-07-23T14:02:53;4.65;;;4.35;;
8331;SDS011;4203;48.144;14.118;2022-07-23T14:05:21;4.53;;;4.22;;
8331;SDS011;4203;48.144;14.118;2022-07-23T14:07:48;4.75;;;4.18;;
8331;SDS011;4203;48.144;14.118;2022-07-23T14:10:16;4.75;;;4.38;;
8331;SDS011;4203;48.144;14.118;2022-07-23T14:12:46;5.20;;;4.43;;
8331;SDS011;4203;48.144;14.118;2022-07-23T14:15:16;4.55;;;4.15;;
8331;SDS011;4203;48.144;14.118;2022-07-23T14:17:43;4.20;;;3.92;;
8331;SDS011;4203;48.144;14.118;2022-07-23T14:20:12;4.68;;;4.28;;
8331;SDS011;4203;48.144;14.118;2022-07-23T14:22:40;4.40;;;4.10;;
8331;SDS011;4203;48.144;14.118;2022-07-23T14:25:08;4.40;;;4.10;;
8331;SDS011;4203;48.144;14.118;2022-07-23T14:27:35;4.50;;;4.10;;
8331;SDS011;4203;48.144;14.118;2022-07-23T14:30:06;4.75;;;4.35;;
8331;SDS011;4203;48.144;14.118;2022-07-23T14:32:34;4.20;;;3.90;;
8331;SDS011;4203;48.144;14.118;2022-07-23T14:35:03;4.43;;;4.07;;
8331;SDS011;4203;48.144;14.118;2022-07-23T14:37:32;5.40;;;4.57;;
8331;SDS011;4203;48.144;14.118;2022-07-23T14:39:59;4.72;;;4.43;;
8331;SDS011;4203;48.144;14.118;2022-07-23T14:42:26;5.32;;;4.25;;
8331;SDS011;4203;48.144;14.118;2022-07-23T14:44:53;4.57;;;4.05;;
8331;SDS011;4203;48.144;14.118;2022-07-23T14:47:22;7.25;;;3.78;;
8331;SDS011;4203;48.144;14.118;2022-07-23T14:49:49;3.90;;;3.70;;
8331;SDS011;4203;48.144;14.118;2022-07-23T14:52:16;3.80;;;3.60;;
8331;SDS011;4203;48.144;14.118;2022-07-23T14:54:43;3.97;;;3.75;;
8331;SDS011;4203;48.144;14.118;2022-07-23T14:57:12;3.80;;;3.50;;
8331;SDS011;4203;48.144;14.118;2022-07-23T14:59:39;4.30;;;3.70;;
8331;SDS011;4203;48.144;14.118;2022-07-23T15:02:08;3.90;;;3.60;;
8331;SDS011;4203;48.144;14.118;2022-07-23T15:04:36;3.65;;;3.45;;
8331;SDS011;4203;48.144;14.118;2022-07-23T15:07:04;3.45;;;3.20;;
8331;SDS011;4203;48.144;14.118;2022-07-23T15:09:31;4.55;;;3.50;;
8331;SDS011;4203;48.144;14.118;2022-07-23T15:11:59;3.85;;;3.55;;
8331;SDS011;4203;48.144;14.118;2022-07-23T15:14:27;4.10;;;3.70;;
8331;SDS011;4203;48.144;14.118;2022-07-23T15:16:54;4.93;;;3.58;;
8331;SDS011;4203;48.144;14.118;2022-07-23T15:19:21;3.60;;;3.40;;
8331;SDS011;4203;48.144;14.118;2022-07-23T15:21:50;4.10;;;3.60;;
8331;SDS011;4203;48.144;14.118;2022-07-23T15:24:17;4.07;;;3.67;;